sensor_id;sensor_type;location;lat;lon;timestamp;P1;durP1;ratioP1;P2;durP2;ratioP2
22476;SDS011;11405;51.698;-0.292;2022-10-15T00:00:26;27.75;;;9.68;;
22476;SDS011;11405;51.698;-0.292;2022-10-15T00:02:52;22.30;;;8.57;;
22476;SDS011;11405;51.698;-0.292;2022-10-15T00:05:18;36.50;;;8.57;;
22476;SDS011;11405;51.698;-0.292;2022-10-15T00:07:44;30.95;;;8.38;;
22476;SDS011;11405;51.698;-0.292;2022-10-15T00:10:10;22.45;;;9.02;;
22476;SDS011;11405;51.698;-0.292;2022-10-15T00:12:36;24.20;;;8.50;;
22476;SDS011;11405;51.698;-0.292;2022-10-15T00:15:03;23.65;;;9.15;;
22476;SDS011;11405;51.698;-0.292;2022-10-15T00:17:29;19.30;;;8.20;;
22476;SDS011;11405;51.698;-0.292;2022-10-15T00:19:55;26.00;;;9.85;;
22476;SDS011;11405;51.698;-0.292;2022-10-15T00:22:21;25.98;;;9.57;;
22476;SDS011;11405;51.698;-0.292;2022-10-15T00:24:47;16.83;;;8.68;;
22476;SDS011;11405;51.698;-0.292;2022-10-15T00:27:13;21.90;;;9.10;;
22476;SDS011;11405;51.698;-0.292;2022-10-15T00:29:39;22.88;;;9.68;;
22476;SDS011;11405;51.698;-0.292;2022-10-15T00:32:05;18.83;;;8.82;;
22476;SDS011;11405;51.698;-0.292;2022-10-15T00:34:31;25.02;;;9.98;;
22476;SDS011;11405;51.698;-0.292;2022-10-15T00:39:28;21.48;;;8.85;;
22476;SDS011;11405;51.698;-0.292;2022-10-15T00:41:54;23.90;;;8.48;;
22476;SDS011;11405;51.698;-0.292;2022-10-15T00:46:56;33.70;;;9.02;;
22476;SDS011;11405;51.698;-0.292;2022-10-15T00:52:00;24.92;;;9.00;;
22476;SDS011;11405;51.698;-0.292;2022-10-15T00:54:27;34.63;;;8.75;;
22476;SDS011;11405;51.698;-0.292;2022-10-15T00:56:54;25.55;;;8.35;;
22476;SDS011;11405;51.698;-0.292;2022-10-15T00:59:21;16.65;;;8.52;;
22476;SDS011;11405;51.698;-0.292;2022-10-15T01:01:47;17.92;;;7.40;;
22476;SDS011;11405;51.698;-0.292;2022-10-15T01:04:13;21.73;;;9.02;;
22476;SDS011;11405;51.698;-0.292;2022-10-15T01:06:41;19.00;;;7.68;;
22476;SDS011;11405;51.698;-0.292;2022-10-15T01:09:07;20.25;;;8.00;;
22476;SDS011;11405;51.698;-0.292;2022-10-15T01:11:46;15.57;;;7.07;;
22476;SDS011;11405;51.698;-0.292;2022-10-15T01:17:22;18.95;;;7.03;;
22476;SDS011;11405;51.698;-0.292;2022-10-15T01:20:07;11.93;;;6.10;;
22476;SDS011;11405;51.698;-0.292;2022-10-15T01:25:18;18.80;;;7.25;;
22476;SDS011;11405;51.698;-0.292;2022-10-15T01:27:55;25.75;;;6.47;;
22476;SDS011;11405;51.698;-0.292;2022-10-15T01:30:30;37.83;;;7.82;;
22476;SDS011;11405;51.698;-0.292;2022-10-15T01:33:03;26.55;;;7.30;;
22476;SDS011;11405;51.698;-0.292;2022-10-15T01:38:11;44.40;;;7.32;;
22476;SDS011;11405;51.698;-0.292;2022-10-15T01:40:49;49.13;;;8.00;;
22476;SDS011;11405;51.698;-0.292;2022-10-15T01:43:20;91.32;;;10.38;;
22476;SDS011;11405;51.698;-0.292;2022-10-15T01:45:48;42.75;;;7.93;;
22476;SDS011;11405;51.698;-0.292;2022-10-15T01:48:16;65.13;;;8.55;;
22476;SDS011;11405;51.698;-0.292;2022-10-15T01:50:45;35.40;;;7.65;;
22476;SDS011;11405;51.698;-0.292;2022-10-15T01:53:16;81.30;;;9.13;;
22476;SDS011;11405;51.698;-0.292;2022-10-15T01:55:45;24.83;;;7.90;;
22476;SDS011;11405;51.698;-0.292;2022-10-15T02:00:38;33.45;;;8.13;;
22476;SDS011;11405;51.698;-0.292;2022-10-15T02:03:06;19.00;;;8.25;;
22476;SDS011;11405;51.698;-0.292;2022-10-15T02:05:34;27.30;;;8.45;;
22476;SDS011;11405;51.698;-0.292;2022-10-15T02:10:27;27.58;;;8.00;;
22476;SDS011;11405;51.698;-0.292;2022-10-15T02:15:25;39.35;;;9.18;;
22476;SDS011;11405;51.698;-0.292;2022-10-15T02:17:59;27.25;;;7.90;;
22476;SDS011;11405;51.698;-0.292;2022-10-15T02:20:28;25.23;;;8.07;;
22476;SDS011;11405;51.698;-0.292;2022-10-15T02:23:11;22.05;;;8.13;;
22476;SDS011;11405;51.698;-0.292;2022-10-15T02:25:38;21.95;;;8.77;;
22476;SDS011;11405;51.698;-0.292;2022-10-15T02:28:04;16.10;;;7.47;;
22476;SDS011;11405;51.698;-0.292;2022-10-15T02:30:31;45.17;;;10.35;;
22476;SDS011;11405;51.698;-0.292;2022-10-15T02:32:58;18.45;;;8.30;;
22476;SDS011;11405;51.698;-0.292;2022-10-15T02:35:25;44.58;;;10.00;;
22476;SDS011;11405;51.698;-0.292;2022-10-15T02:37:52;24.77;;;9.40;;
22476;SDS011;11405;51.698;-0.292;2022-10-15T02:40:26;21.42;;;8.63;;
22476;SDS011;11405;51.698;-0.292;2022-10-15T02:42:53;22.60;;;9.05;;
22476;SDS011;11405;51.698;-0.292;2022-10-15T02:45:19;22.95;;;8.45;;
22476;SDS011;11405;51.698;-0.292;2022-10-15T02:47:45;21.48;;;9.07;;
22476;SDS011;11405;51.698;-0.292;2022-10-15T02:50:12;30.67;;;8.48;;
22476;SDS011;11405;51.698;-0.292;2022-10-15T02:52:37;20.65;;;8.48;;
22476;SDS011;11405;51.698;-0.292;2022-10-15T02:55:04;20.67;;;8.60;;
22476;SDS011;11405;51.698;-0.292;2022-10-15T02:59:56;18.63;;;8.50;;
22476;SDS011;11405;51.698;-0.292;2022-10-15T03:02:22;20.33;;;9.18;;
22476;SDS011;11405;51.698;-0.292;2022-10-15T03:04:48;14.52;;;7.82;;
22476;SDS011;11405;51.698;-0.292;2022-10-15T03:07:14;19.83;;;8.50;;
22476;SDS011;11405;51.698;-0.292;2022-10-15T03:09:40;20.02;;;7.88;;
22476;SDS011;11405;51.698;-0.292;2022-10-15T03:12:06;24.80;;;8.98;;
22476;SDS011;11405;51.698;-0.292;2022-10-15T03:14:32;11.13;;;7.55;;
22476;SDS011;11405;51.698;-0.292;2022-10-15T03:16:58;15.02;;;7.25;;
22476;SDS011;11405;51.698;-0.292;2022-10-15T03:19:24;14.68;;;8.38;;
22476;SDS011;11405;51.698;-0.292;2022-10-15T03:21:50;11.75;;;5.88;;
22476;SDS011;11405;51.698;-0.292;2022-10-15T03:24:16;12.02;;;6.30;;
22476;SDS011;11405;51.698;-0.292;2022-10-15T03:26:42;15.80;;;6.85;;
22476;SDS011;11405;51.698;-0.292;2022-10-15T03:29:08;12.93;;;6.47;;
22476;SDS011;11405;51.698;-0.292;2022-10-15T03:31:34;10.88;;;6.40;;
22476;SDS011;11405;51.698;-0.292;2022-10-15T03:34:00;10.80;;;6.05;;
22476;SDS011;11405;51.698;-0.292;2022-10-15T03:36:26;10.30;;;6.15;;
22476;SDS011;11405;51.698;-0.292;2022-10-15T03:38:52;10.20;;;5.88;;
22476;SDS011;11405;51.698;-0.292;2022-10-15T03:41:18;13.60;;;6.55;;
22476;SDS011;11405;51.698;-0.292;2022-10-15T03:43:44;17.10;;;6.88;;
22476;SDS011;11405;51.698;-0.292;2022-10-15T03:46:10;14.05;;;6.10;;
22476;SDS011;11405;51.698;-0.292;2022-10-15T03:48:36;11.73;;;6.10;;
22476;SDS011;11405;51.698;-0.292;2022-10-15T03:51:02;13.75;;;6.03;;
22476;SDS011;11405;51.698;-0.292;2022-10-15T03:53:28;13.45;;;6.90;;
22476;SDS011;11405;51.698;-0.292;2022-10-15T03:55:54;13.43;;;6.25;;
22476;SDS011;11405;51.698;-0.292;2022-10-15T03:58:20;14.25;;;6.65;;
22476;SDS011;11405;51.698;-0.292;2022-10-15T04:00:46;15.10;;;6.55;;
22476;SDS011;11405;51.698;-0.292;2022-10-15T04:03:12;17.33;;;6.40;;
22476;SDS011;11405;51.698;-0.292;2022-10-15T04:05:39;14.30;;;6.32;;
22476;SDS011;11405;51.698;-0.292;2022-10-15T04:08:05;10.05;;;6.10;;
22476;SDS011;11405;51.698;-0.292;2022-10-15T04:10:31;15.77;;;6.45;;
22476;SDS011;11405;51.698;-0.292;2022-10-15T04:12:57;15.75;;;6.93;;
22476;SDS011;11405;51.698;-0.292;2022-10-15T04:15:23;14.35;;;7.15;;
22476;SDS011;11405;51.698;-0.292;2022-10-15T04:17:54;14.48;;;6.57;;
22476;SDS011;11405;51.698;-0.292;2022-10-15T04:20:20;13.75;;;7.18;;
22476;SDS011;11405;51.698;-0.292;2022-10-15T04:22:46;13.85;;;6.45;;
22476;SDS011;11405;51.698;-0.292;2022-10-15T04:25:12;11.23;;;6.55;;
22476;SDS011;11405;51.698;-0.292;2022-10-15T04:27:38;13.65;;;6.85;;
22476;SDS011;11405;51.698;-0.292;2022-10-15T04:30:04;12.40;;;6.80;;
22476;SDS011;11405;51.698;-0.292;2022-10-15T04:32:30;14.50;;;6.95;;
22476;SDS011;11405;51.698;-0.292;2022-10-15T04:34:56;11.70;;;5.72;;
22476;SDS011;11405;51.698;-0.292;2022-10-15T04:37:22;17.27;;;6.97;;
22476;SDS011;11405;51.698;-0.292;2022-10-15T04:39:48;11.25;;;6.00;;
22476;SDS011;11405;51.698;-0.292;2022-10-15T04:42:14;12.05;;;7.35;;
22476;SDS011;11405;51.698;-0.292;2022-10-15T04:44:40;14.63;;;6.22;;
22476;SDS011;11405;51.698;-0.292;2022-10-15T04:47:06;10.55;;;6.47;;
22476;SDS011;11405;51.698;-0.292;2022-10-15T04:49:32;18.60;;;6.35;;
22476;SDS011;11405;51.698;-0.292;2022-10-15T04:51:58;14.52;;;5.72;;
22476;SDS011;11405;51.698;-0.292;2022-10-15T04:54:24;13.40;;;6.20;;
22476;SDS011;11405;51.698;-0.292;2022-10-15T04:56:50;11.95;;;5.60;;
22476;SDS011;11405;51.698;-0.292;2022-10-15T04:59:16;15.43;;;6.63;;
22476;SDS011;11405;51.698;-0.292;2022-10-15T05:01:42;10.82;;;5.15;;
22476;SDS011;11405;51.698;-0.292;2022-10-15T05:04:09;13.82;;;5.78;;
22476;SDS011;11405;51.698;-0.292;2022-10-15T05:06:36;13.73;;;5.43;;
22476;SDS011;11405;51.698;-0.292;2022-10-15T05:09:02;13.07;;;5.45;;
22476;SDS011;11405;51.698;-0.292;2022-10-15T05:11:28;17.23;;;4.60;;
22476;SDS011;11405;51.698;-0.292;2022-10-15T05:13:55;12.20;;;4.75;;
22476;SDS011;11405;51.698;-0.292;2022-10-15T05:16:22;11.60;;;5.15;;
22476;SDS011;11405;51.698;-0.292;2022-10-15T05:18:49;10.00;;;4.53;;
22476;SDS011;11405;51.698;-0.292;2022-10-15T05:23:41;12.60;;;4.22;;
22476;SDS011;11405;51.698;-0.292;2022-10-15T05:26:11;13.38;;;4.60;;
22476;SDS011;11405;51.698;-0.292;2022-10-15T05:28:38;7.85;;;4.30;;
22476;SDS011;11405;51.698;-0.292;2022-10-15T05:31:04;11.70;;;5.07;;
22476;SDS011;11405;51.698;-0.292;2022-10-15T05:33:30;12.90;;;4.78;;
22476;SDS011;11405;51.698;-0.292;2022-10-15T05:35:56;7.53;;;4.38;;
22476;SDS011;11405;51.698;-0.292;2022-10-15T05:38:22;7.97;;;4.55;;
22476;SDS011;11405;51.698;-0.292;2022-10-15T05:40:48;9.52;;;4.60;;
22476;SDS011;11405;51.698;-0.292;2022-10-15T05:43:14;9.73;;;4.50;;
22476;SDS011;11405;51.698;-0.292;2022-10-15T05:45:40;7.95;;;4.47;;
22476;SDS011;11405;51.698;-0.292;2022-10-15T05:48:06;11.98;;;4.68;;
22476;SDS011;11405;51.698;-0.292;2022-10-15T05:50:33;13.38;;;4.45;;
22476;SDS011;11405;51.698;-0.292;2022-10-15T05:52:58;9.90;;;4.43;;
22476;SDS011;11405;51.698;-0.292;2022-10-15T05:55:24;9.00;;;3.87;;
22476;SDS011;11405;51.698;-0.292;2022-10-15T05:57:50;12.48;;;4.43;;
22476;SDS011;11405;51.698;-0.292;2022-10-15T06:00:16;8.73;;;3.85;;
22476;SDS011;11405;51.698;-0.292;2022-10-15T06:02:42;11.77;;;4.80;;
22476;SDS011;11405;51.698;-0.292;2022-10-15T06:05:08;11.85;;;4.50;;
22476;SDS011;11405;51.698;-0.292;2022-10-15T06:07:34;10.93;;;4.07;;
22476;SDS011;11405;51.698;-0.292;2022-10-15T06:10:01;8.20;;;3.90;;
22476;SDS011;11405;51.698;-0.292;2022-10-15T06:12:27;7.45;;;4.32;;
22476;SDS011;11405;51.698;-0.292;2022-10-15T06:14:53;13.13;;;4.68;;
22476;SDS011;11405;51.698;-0.292;2022-10-15T06:17:19;9.55;;;4.40;;
22476;SDS011;11405;51.698;-0.292;2022-10-15T06:19:45;12.88;;;4.65;;
22476;SDS011;11405;51.698;-0.292;2022-10-15T06:22:11;8.55;;;4.38;;
22476;SDS011;11405;51.698;-0.292;2022-10-15T06:24:37;12.77;;;4.85;;
22476;SDS011;11405;51.698;-0.292;2022-10-15T06:27:04;13.35;;;5.05;;
22476;SDS011;11405;51.698;-0.292;2022-10-15T06:29:30;9.32;;;4.18;;
22476;SDS011;11405;51.698;-0.292;2022-10-15T06:31:57;9.65;;;4.13;;
22476;SDS011;11405;51.698;-0.292;2022-10-15T06:34:23;9.55;;;3.60;;
22476;SDS011;11405;51.698;-0.292;2022-10-15T06:36:49;10.48;;;4.32;;
22476;SDS011;11405;51.698;-0.292;2022-10-15T06:39:16;9.98;;;4.68;;
22476;SDS011;11405;51.698;-0.292;2022-10-15T06:41:42;13.48;;;5.10;;
22476;SDS011;11405;51.698;-0.292;2022-10-15T06:44:08;13.23;;;4.55;;
22476;SDS011;11405;51.698;-0.292;2022-10-15T06:46:35;10.50;;;4.55;;
22476;SDS011;11405;51.698;-0.292;2022-10-15T06:49:01;13.90;;;5.13;;
22476;SDS011;11405;51.698;-0.292;2022-10-15T06:51:27;13.23;;;5.32;;
22476;SDS011;11405;51.698;-0.292;2022-10-15T06:53:53;14.87;;;6.43;;
22476;SDS011;11405;51.698;-0.292;2022-10-15T06:56:19;11.40;;;5.90;;
22476;SDS011;11405;51.698;-0.292;2022-10-15T06:58:45;13.30;;;5.13;;
22476;SDS011;11405;51.698;-0.292;2022-10-15T07:01:11;11.23;;;5.10;;
22476;SDS011;11405;51.698;-0.292;2022-10-15T07:03:37;17.10;;;5.97;;
22476;SDS011;11405;51.698;-0.292;2022-10-15T07:06:04;15.07;;;6.03;;
22476;SDS011;11405;51.698;-0.292;2022-10-15T07:08:30;9.60;;;5.13;;
22476;SDS011;11405;51.698;-0.292;2022-10-15T07:10:56;16.90;;;4.95;;
22476;SDS011;11405;51.698;-0.292;2022-10-15T07:13:23;9.15;;;4.93;;
22476;SDS011;11405;51.698;-0.292;2022-10-15T07:15:48;10.75;;;5.05;;
22476;SDS011;11405;51.698;-0.292;2022-10-15T07:18:18;12.60;;;5.10;;
22476;SDS011;11405;51.698;-0.292;2022-10-15T07:20:44;11.15;;;4.70;;
22476;SDS011;11405;51.698;-0.292;2022-10-15T07:23:13;9.35;;;4.55;;
22476;SDS011;11405;51.698;-0.292;2022-10-15T07:25:39;13.43;;;4.95;;
22476;SDS011;11405;51.698;-0.292;2022-10-15T07:28:05;13.25;;;5.25;;
22476;SDS011;11405;51.698;-0.292;2022-10-15T07:30:31;14.88;;;4.63;;
22476;SDS011;11405;51.698;-0.292;2022-10-15T07:32:57;10.55;;;4.03;;
22476;SDS011;11405;51.698;-0.292;2022-10-15T07:35:24;8.55;;;4.40;;
22476;SDS011;11405;51.698;-0.292;2022-10-15T07:37:51;12.40;;;4.30;;
22476;SDS011;11405;51.698;-0.292;2022-10-15T07:40:17;12.15;;;4.15;;
22476;SDS011;11405;51.698;-0.292;2022-10-15T07:45:09;11.95;;;4.32;;
22476;SDS011;11405;51.698;-0.292;2022-10-15T07:47:38;10.35;;;4.78;;
22476;SDS011;11405;51.698;-0.292;2022-10-15T07:50:04;13.70;;;4.75;;
22476;SDS011;11405;51.698;-0.292;2022-10-15T07:52:30;10.98;;;4.72;;
22476;SDS011;11405;51.698;-0.292;2022-10-15T07:54:56;10.43;;;4.13;;
22476;SDS011;11405;51.698;-0.292;2022-10-15T07:57:22;10.48;;;4.78;;
22476;SDS011;11405;51.698;-0.292;2022-10-15T07:59:48;8.13;;;4.15;;
22476;SDS011;11405;51.698;-0.292;2022-10-15T08:02:15;8.38;;;4.22;;
22476;SDS011;11405;51.698;-0.292;2022-10-15T08:04:41;6.90;;;3.95;;
22476;SDS011;11405;51.698;-0.292;2022-10-15T08:07:07;9.85;;;3.33;;
22476;SDS011;11405;51.698;-0.292;2022-10-15T08:09:33;8.13;;;3.53;;
22476;SDS011;11405;51.698;-0.292;2022-10-15T08:11:59;7.18;;;3.33;;
22476;SDS011;11405;51.698;-0.292;2022-10-15T08:14:25;10.23;;;3.05;;
22476;SDS011;11405;51.698;-0.292;2022-10-15T08:16:51;11.68;;;2.88;;
22476;SDS011;11405;51.698;-0.292;2022-10-15T08:19:17;6.25;;;2.70;;
22476;SDS011;11405;51.698;-0.292;2022-10-15T08:21:43;9.93;;;2.80;;
22476;SDS011;11405;51.698;-0.292;2022-10-15T08:24:09;4.15;;;2.50;;
22476;SDS011;11405;51.698;-0.292;2022-10-15T08:26:35;7.75;;;2.65;;
22476;SDS011;11405;51.698;-0.292;2022-10-15T08:29:01;6.32;;;2.38;;
22476;SDS011;11405;51.698;-0.292;2022-10-15T08:31:27;7.00;;;1.77;;
22476;SDS011;11405;51.698;-0.292;2022-10-15T08:33:53;5.63;;;1.95;;
22476;SDS011;11405;51.698;-0.292;2022-10-15T08:36:19;7.40;;;1.77;;
22476;SDS011;11405;51.698;-0.292;2022-10-15T08:38:45;3.80;;;1.08;;
22476;SDS011;11405;51.698;-0.292;2022-10-15T08:43:56;6.30;;;1.42;;
22476;SDS011;11405;51.698;-0.292;2022-10-15T08:46:24;4.57;;;1.35;;
22476;SDS011;11405;51.698;-0.292;2022-10-15T08:48:54;8.60;;;1.17;;
22476;SDS011;11405;51.698;-0.292;2022-10-15T08:51:24;5.20;;;1.30;;
22476;SDS011;11405;51.698;-0.292;2022-10-15T08:53:53;6.38;;;1.13;;
22476;SDS011;11405;51.698;-0.292;2022-10-15T08:56:26;4.35;;;1.17;;
22476;SDS011;11405;51.698;-0.292;2022-10-15T08:58:54;7.93;;;1.90;;
22476;SDS011;11405;51.698;-0.292;2022-10-15T09:06:36;2.45;;;0.90;;
22476;SDS011;11405;51.698;-0.292;2022-10-15T09:13:55;4.55;;;0.60;;
22476;SDS011;11405;51.698;-0.292;2022-10-15T09:16:29;4.50;;;0.70;;
22476;SDS011;11405;51.698;-0.292;2022-10-15T09:19:00;3.55;;;0.50;;
22476;SDS011;11405;51.698;-0.292;2022-10-15T09:21:27;5.43;;;0.90;;
22476;SDS011;11405;51.698;-0.292;2022-10-15T09:23:54;2.40;;;0.50;;
22476;SDS011;11405;51.698;-0.292;2022-10-15T09:31:51;3.72;;;0.65;;
22476;SDS011;11405;51.698;-0.292;2022-10-15T09:34:25;1.55;;;0.40;;
22476;SDS011;11405;51.698;-0.292;2022-10-15T09:36:57;1.98;;;0.60;;
22476;SDS011;11405;51.698;-0.292;2022-10-15T09:44:39;2.90;;;0.45;;
22476;SDS011;11405;51.698;-0.292;2022-10-15T09:49:47;1.48;;;0.40;;
22476;SDS011;11405;51.698;-0.292;2022-10-15T09:57:36;0.98;;;0.40;;
22476;SDS011;11405;51.698;-0.292;2022-10-15T10:02:29;1.42;;;0.30;;
22476;SDS011;11405;51.698;-0.292;2022-10-15T10:04:55;2.08;;;0.50;;
22476;SDS011;11405;51.698;-0.292;2022-10-15T10:09:58;1.88;;;0.47;;
22476;SDS011;11405;51.698;-0.292;2022-10-15T10:12:32;0.90;;;0.40;;
22476;SDS011;11405;51.698;-0.292;2022-10-15T10:15:04;1.92;;;0.43;;
22476;SDS011;11405;51.698;-0.292;2022-10-15T10:17:33;0.93;;;0.20;;
22476;SDS011;11405;51.698;-0.292;2022-10-15T10:22:28;1.25;;;0.50;;
22476;SDS011;11405;51.698;-0.292;2022-10-15T10:24:55;3.03;;;0.32;;
22476;SDS011;11405;51.698;-0.292;2022-10-15T10:27:24;1.25;;;0.50;;
22476;SDS011;11405;51.698;-0.292;2022-10-15T10:29:56;4.05;;;0.50;;
22476;SDS011;11405;51.698;-0.292;2022-10-15T10:32:30;4.43;;;0.60;;
22476;SDS011;11405;51.698;-0.292;2022-10-15T10:34:57;4.65;;;0.63;;
22476;SDS011;11405;51.698;-0.292;2022-10-15T10:37:24;4.03;;;0.60;;
22476;SDS011;11405;51.698;-0.292;2022-10-15T10:44:46;5.32;;;0.73;;
22476;SDS011;11405;51.698;-0.292;2022-10-15T10:49:42;4.63;;;0.40;;
22476;SDS011;11405;51.698;-0.292;2022-10-15T10:52:18;3.25;;;0.45;;
22476;SDS011;11405;51.698;-0.292;2022-10-15T10:54:45;1.33;;;0.27;;
22476;SDS011;11405;51.698;-0.292;2022-10-15T10:57:12;3.60;;;0.47;;
22476;SDS011;11405;51.698;-0.292;2022-10-15T10:59:43;3.67;;;0.40;;
22476;SDS011;11405;51.698;-0.292;2022-10-15T11:02:10;2.05;;;0.40;;
22476;SDS011;11405;51.698;-0.292;2022-10-15T11:04:36;1.98;;;0.30;;
22476;SDS011;11405;51.698;-0.292;2022-10-15T11:07:04;6.65;;;0.45;;
22476;SDS011;11405;51.698;-0.292;2022-10-15T11:20:02;1.42;;;0.20;;
22476;SDS011;11405;51.698;-0.292;2022-10-15T11:27:45;3.15;;;0.60;;
22476;SDS011;11405;51.698;-0.292;2022-10-15T11:40:25;9.73;;;0.47;;
22476;SDS011;11405;51.698;-0.292;2022-10-15T11:42:59;5.45;;;0.52;;
22476;SDS011;11405;51.698;-0.292;2022-10-15T11:48:12;1.48;;;0.47;;
22476;SDS011;11405;51.698;-0.292;2022-10-15T11:50:46;2.08;;;0.50;;
22476;SDS011;11405;51.698;-0.292;2022-10-15T11:55:50;4.45;;;0.70;;
22476;SDS011;11405;51.698;-0.292;2022-10-15T11:58:34;2.45;;;0.52;;
22476;SDS011;11405;51.698;-0.292;2022-10-15T12:01:05;9.32;;;0.93;;
22476;SDS011;11405;51.698;-0.292;2022-10-15T12:03:34;4.22;;;0.77;;
22476;SDS011;11405;51.698;-0.292;2022-10-15T12:06:12;5.28;;;0.65;;
22476;SDS011;11405;51.698;-0.292;2022-10-15T12:08:39;1.75;;;0.40;;
22476;SDS011;11405;51.698;-0.292;2022-10-15T12:13:40;5.07;;;0.88;;
22476;SDS011;11405;51.698;-0.292;2022-10-15T12:23:59;2.63;;;0.50;;
22476;SDS011;11405;51.698;-0.292;2022-10-15T12:28:52;2.72;;;0.38;;
22476;SDS011;11405;51.698;-0.292;2022-10-15T12:31:19;1.67;;;0.20;;
22476;SDS011;11405;51.698;-0.292;2022-10-15T12:33:50;3.78;;;0.30;;
22476;SDS011;11405;51.698;-0.292;2022-10-15T12:41:33;6.18;;;0.80;;
22476;SDS011;11405;51.698;-0.292;2022-10-15T12:44:10;0.80;;;0.40;;
22476;SDS011;11405;51.698;-0.292;2022-10-15T12:46:40;3.75;;;1.23;;
22476;SDS011;11405;51.698;-0.292;2022-10-15T12:51:52;3.63;;;0.45;;
22476;SDS011;11405;51.698;-0.292;2022-10-15T12:56:44;3.55;;;0.57;;
22476;SDS011;11405;51.698;-0.292;2022-10-15T12:59:26;2.10;;;0.30;;
22476;SDS011;11405;51.698;-0.292;2022-10-15T13:01:53;3.53;;;0.63;;
22476;SDS011;11405;51.698;-0.292;2022-10-15T13:04:19;3.90;;;0.80;;
22476;SDS011;11405;51.698;-0.292;2022-10-15T13:06:45;1.38;;;0.40;;
22476;SDS011;11405;51.698;-0.292;2022-10-15T13:09:18;0.80;;;0.20;;
22476;SDS011;11405;51.698;-0.292;2022-10-15T13:14:16;4.88;;;0.52;;
22476;SDS011;11405;51.698;-0.292;2022-10-15T13:16:44;3.90;;;0.40;;
22476;SDS011;11405;51.698;-0.292;2022-10-15T13:19:24;3.25;;;0.70;;
22476;SDS011;11405;51.698;-0.292;2022-10-15T13:21:51;2.53;;;0.88;;
22476;SDS011;11405;51.698;-0.292;2022-10-15T13:24:20;3.50;;;0.90;;
22476;SDS011;11405;51.698;-0.292;2022-10-15T13:26:47;1.05;;;0.30;;
22476;SDS011;11405;51.698;-0.292;2022-10-15T13:29:14;2.17;;;0.60;;
22476;SDS011;11405;51.698;-0.292;2022-10-15T13:31:40;3.13;;;0.50;;
22476;SDS011;11405;51.698;-0.292;2022-10-15T13:36:44;2.67;;;0.40;;
22476;SDS011;11405;51.698;-0.292;2022-10-15T13:39:19;0.90;;;0.47;;
22476;SDS011;11405;51.698;-0.292;2022-10-15T13:41:47;2.25;;;0.90;;
22476;SDS011;11405;51.698;-0.292;2022-10-15T13:44:23;6.60;;;0.77;;
22476;SDS011;11405;51.698;-0.292;2022-10-15T13:46:49;2.65;;;0.30;;
22476;SDS011;11405;51.698;-0.292;2022-10-15T13:49:16;1.38;;;0.52;;
22476;SDS011;11405;51.698;-0.292;2022-10-15T13:51:44;1.77;;;0.35;;
22476;SDS011;11405;51.698;-0.292;2022-10-15T13:54:11;3.58;;;0.60;;
22476;SDS011;11405;51.698;-0.292;2022-10-15T13:56:43;3.22;;;0.38;;
22476;SDS011;11405;51.698;-0.292;2022-10-15T13:59:14;4.32;;;0.40;;
22476;SDS011;11405;51.698;-0.292;2022-10-15T14:01:47;4.05;;;0.52;;
22476;SDS011;11405;51.698;-0.292;2022-10-15T14:04:14;4.78;;;0.60;;
22476;SDS011;11405;51.698;-0.292;2022-10-15T14:06:41;1.83;;;0.52;;
22476;SDS011;11405;51.698;-0.292;2022-10-15T14:09:18;6.30;;;0.65;;
22476;SDS011;11405;51.698;-0.292;2022-10-15T14:11:46;2.38;;;0.40;;
22476;SDS011;11405;51.698;-0.292;2022-10-15T14:16:54;2.92;;;0.63;;
22476;SDS011;11405;51.698;-0.292;2022-10-15T14:19:21;3.25;;;0.47;;
22476;SDS011;11405;51.698;-0.292;2022-10-15T14:21:54;2.25;;;0.50;;
22476;SDS011;11405;51.698;-0.292;2022-10-15T14:24:30;9.98;;;0.65;;
22476;SDS011;11405;51.698;-0.292;2022-10-15T14:27:13;3.35;;;0.60;;
22476;SDS011;11405;51.698;-0.292;2022-10-15T14:29:40;4.07;;;1.00;;
22476;SDS011;11405;51.698;-0.292;2022-10-15T14:34:57;5.63;;;0.68;;
22476;SDS011;11405;51.698;-0.292;2022-10-15T14:40:01;1.45;;;0.55;;
22476;SDS011;11405;51.698;-0.292;2022-10-15T14:42:30;2.22;;;0.65;;
22476;SDS011;11405;51.698;-0.292;2022-10-15T14:44:56;8.48;;;1.02;;
22476;SDS011;11405;51.698;-0.292;2022-10-15T14:47:35;9.48;;;1.42;;
22476;SDS011;11405;51.698;-0.292;2022-10-15T14:50:01;4.18;;;0.52;;
22476;SDS011;11405;51.698;-0.292;2022-10-15T14:52:28;6.28;;;1.08;;
22476;SDS011;11405;51.698;-0.292;2022-10-15T14:55:03;4.53;;;0.63;;
22476;SDS011;11405;51.698;-0.292;2022-10-15T14:57:33;4.22;;;0.77;;
22476;SDS011;11405;51.698;-0.292;2022-10-15T15:00:00;3.80;;;1.00;;
22476;SDS011;11405;51.698;-0.292;2022-10-15T15:02:26;8.55;;;0.77;;
22476;SDS011;11405;51.698;-0.292;2022-10-15T15:07:19;3.97;;;1.20;;
22476;SDS011;11405;51.698;-0.292;2022-10-15T15:09:46;4.40;;;0.80;;
22476;SDS011;11405;51.698;-0.292;2022-10-15T15:12:14;5.70;;;0.80;;
22476;SDS011;11405;51.698;-0.292;2022-10-15T15:14:42;5.80;;;0.90;;
22476;SDS011;11405;51.698;-0.292;2022-10-15T15:17:11;4.63;;;1.15;;
22476;SDS011;11405;51.698;-0.292;2022-10-15T15:19:38;7.30;;;1.10;;
22476;SDS011;11405;51.698;-0.292;2022-10-15T15:22:04;6.45;;;1.00;;
22476;SDS011;11405;51.698;-0.292;2022-10-15T15:24:32;4.90;;;0.95;;
22476;SDS011;11405;51.698;-0.292;2022-10-15T15:26:58;4.38;;;0.93;;
22476;SDS011;11405;51.698;-0.292;2022-10-15T15:29:24;8.77;;;0.90;;
22476;SDS011;11405;51.698;-0.292;2022-10-15T15:31:50;7.50;;;0.77;;
22476;SDS011;11405;51.698;-0.292;2022-10-15T15:34:16;8.68;;;1.35;;
22476;SDS011;11405;51.698;-0.292;2022-10-15T15:36:42;6.03;;;1.00;;
22476;SDS011;11405;51.698;-0.292;2022-10-15T15:39:08;9.85;;;1.05;;
22476;SDS011;11405;51.698;-0.292;2022-10-15T15:41:34;5.90;;;0.98;;
22476;SDS011;11405;51.698;-0.292;2022-10-15T15:44:00;6.18;;;1.00;;
22476;SDS011;11405;51.698;-0.292;2022-10-15T15:46:28;8.80;;;1.00;;
22476;SDS011;11405;51.698;-0.292;2022-10-15T15:48:54;9.98;;;1.17;;
22476;SDS011;11405;51.698;-0.292;2022-10-15T15:51:27;9.05;;;1.35;;
22476;SDS011;11405;51.698;-0.292;2022-10-15T15:53:54;9.48;;;1.30;;
22476;SDS011;11405;51.698;-0.292;2022-10-15T15:56:20;5.47;;;0.90;;
22476;SDS011;11405;51.698;-0.292;2022-10-15T15:58:47;8.82;;;1.02;;
22476;SDS011;11405;51.698;-0.292;2022-10-15T16:01:14;9.05;;;1.05;;
22476;SDS011;11405;51.698;-0.292;2022-10-15T16:03:40;5.85;;;0.80;;
22476;SDS011;11405;51.698;-0.292;2022-10-15T16:06:06;5.55;;;0.85;;
22476;SDS011;11405;51.698;-0.292;2022-10-15T16:08:33;6.45;;;0.88;;
22476;SDS011;11405;51.698;-0.292;2022-10-15T16:11:00;5.13;;;0.80;;
22476;SDS011;11405;51.698;-0.292;2022-10-15T16:15:52;5.68;;;0.93;;
22476;SDS011;11405;51.698;-0.292;2022-10-15T16:18:18;4.15;;;1.02;;
22476;SDS011;11405;51.698;-0.292;2022-10-15T16:20:44;4.72;;;0.90;;
22476;SDS011;11405;51.698;-0.292;2022-10-15T16:23:10;3.95;;;0.88;;
22476;SDS011;11405;51.698;-0.292;2022-10-15T16:25:36;8.02;;;0.95;;
22476;SDS011;11405;51.698;-0.292;2022-10-15T16:28:02;4.10;;;0.98;;
22476;SDS011;11405;51.698;-0.292;2022-10-15T16:30:28;4.95;;;1.15;;
22476;SDS011;11405;51.698;-0.292;2022-10-15T16:32:54;3.15;;;0.77;;
22476;SDS011;11405;51.698;-0.292;2022-10-15T16:35:20;7.85;;;1.38;;
22476;SDS011;11405;51.698;-0.292;2022-10-15T16:37:46;4.60;;;0.65;;
22476;SDS011;11405;51.698;-0.292;2022-10-15T16:40:13;5.78;;;0.70;;
22476;SDS011;11405;51.698;-0.292;2022-10-15T16:42:39;5.80;;;1.15;;
22476;SDS011;11405;51.698;-0.292;2022-10-15T16:47:35;8.98;;;1.35;;
22476;SDS011;11405;51.698;-0.292;2022-10-15T16:50:01;7.57;;;0.85;;
22476;SDS011;11405;51.698;-0.292;2022-10-15T16:52:27;7.68;;;1.23;;
22476;SDS011;11405;51.698;-0.292;2022-10-15T16:54:53;7.40;;;1.80;;
22476;SDS011;11405;51.698;-0.292;2022-10-15T16:57:21;9.77;;;0.75;;
22476;SDS011;11405;51.698;-0.292;2022-10-15T16:59:47;7.90;;;1.00;;
22476;SDS011;11405;51.698;-0.292;2022-10-15T17:02:13;7.43;;;1.27;;